createdAt,value
2018-08-18T00:00:05.034Z,41.70
2018-08-18T00:02:37.078Z,41.80
2018-08-18T00:05:07.009Z,41.90
2018-08-18T00:07:35.261Z,42.00
2018-08-18T00:10:05.191Z,42.20
2018-08-18T00:12:33.428Z,42.20
2018-08-18T00:15:01.623Z,42.20
2018-08-18T00:17:29.875Z,42.40
2018-08-18T00:19:58.079Z,42.60
2018-08-18T00:22:26.414Z,42.60
2018-08-18T00:24:58.464Z,43.10
2018-08-18T00:27:27.311Z,43.50
2018-08-18T00:30:00.974Z,43.40
2018-08-18T00:32:29.664Z,43.40
2018-08-18T00:34:57.833Z,43.40
2018-08-18T00:37:26.322Z,43.60
2018-08-18T00:39:55.321Z,43.60
2018-08-18T00:42:23.706Z,43.60
2018-08-18T00:44:51.921Z,43.60
2018-08-18T00:47:20.138Z,44.00
2018-08-18T00:49:48.410Z,44.30
2018-08-18T00:52:16.630Z,44.20
2018-08-18T00:54:44.850Z,44.40
2018-08-18T00:57:24.993Z,44.40
2018-08-18T00:59:54.658Z,44.40
2018-08-18T01:02:22.938Z,44.50
2018-08-18T01:05:00.290Z,44.90
2018-08-18T01:07:29.597Z,45.00
2018-08-18T01:09:58.286Z,45.10
2018-08-18T01:12:27.375Z,45.00
2018-08-18T01:14:56.147Z,45.40
2018-08-18T01:17:24.661Z,45.70
2018-08-18T01:19:53.614Z,45.60
2018-08-18T01:22:21.821Z,45.60
2018-08-18T01:24:51.496Z,45.60
2018-08-18T01:27:19.766Z,45.90
2018-08-18T01:29:53.191Z,46.10
2018-08-18T01:32:21.404Z,46.40
2018-08-18T01:34:50.657Z,46.60
2018-08-18T01:37:19.584Z,46.80
2018-08-18T01:39:50.202Z,47.00
2018-08-18T01:42:18.398Z,46.90
2018-08-18T01:44:46.607Z,47.10
2018-08-18T01:47:14.840Z,47.10
2018-08-18T01:49:43.098Z,47.20
2018-08-18T01:52:16.721Z,47.50
2018-08-18T01:54:45.601Z,48.40
2018-08-18T01:57:14.582Z,47.90
2018-08-18T01:59:44.009Z,47.80
2018-08-18T02:02:19.979Z,47.90
2018-08-18T02:04:48.544Z,47.80
2018-08-18T02:07:21.063Z,47.90
2018-08-18T02:09:49.396Z,47.70
2018-08-18T02:12:17.591Z,47.80
2018-08-18T02:14:45.918Z,48.20
2018-08-18T02:17:24.223Z,48.10
2018-08-18T02:19:52.692Z,48.10
2018-08-18T02:22:21.731Z,48.30
2018-08-18T02:24:49.949Z,48.60
2018-08-18T02:27:18.181Z,48.40
2018-08-18T02:29:57.699Z,48.50
2018-08-18T02:32:30.571Z,48.70
2018-08-18T02:34:58.930Z,49.00
2018-08-18T02:37:28.020Z,49.30
2018-08-18T02:39:56.282Z,49.30
2018-08-18T02:42:30.833Z,49.50
2018-08-18T02:44:58.999Z,49.80
2018-08-18T02:47:27.209Z,50.10
2018-08-18T02:49:55.963Z,50.20
2018-08-18T02:52:27.168Z,50.30
2018-08-18T02:55:01.153Z,50.40
2018-08-18T02:57:30.506Z,50.30
2018-08-18T03:00:00.218Z,50.50
2018-08-18T03:02:28.477Z,50.40
2018-08-18T03:04:56.650Z,50.70
2018-08-18T03:07:25.426Z,50.60
2018-08-18T03:09:53.950Z,50.70
2018-08-18T03:12:23.870Z,50.90
2018-08-18T03:14:52.086Z,50.80
2018-08-18T03:17:20.330Z,51.00
2018-08-18T03:19:48.597Z,50.90
2018-08-18T03:22:16.821Z,51.40
2018-08-18T03:24:45.022Z,51.10
2018-08-18T03:27:13.267Z,51.20
2018-08-18T03:29:47.671Z,52.00
2018-08-18T03:32:15.913Z,51.50
2018-08-18T03:34:44.131Z,51.70
2018-08-18T03:37:26.034Z,52.00
2018-08-18T03:39:54.321Z,51.90
2018-08-18T03:42:28.263Z,52.10
2018-08-18T03:44:56.865Z,52.30
2018-08-18T03:47:25.072Z,52.50
2018-08-18T03:49:53.306Z,52.60
2018-08-18T03:52:21.525Z,52.00
2018-08-18T03:54:49.728Z,52.60
2018-08-18T03:57:17.945Z,52.60
2018-08-18T03:59:46.191Z,52.70
2018-08-18T04:02:14.422Z,52.60
2018-08-18T04:04:43.139Z,52.80
2018-08-18T04:07:11.538Z,53.00
2018-08-18T04:09:39.919Z,53.00
2018-08-18T04:12:09.523Z,52.80
2018-08-18T04:14:43.934Z,53.10
2018-08-18T04:17:24.253Z,53.70
2018-08-18T04:19:52.473Z,54.20
2018-08-18T04:22:22.085Z,54.20
2018-08-18T04:24:50.483Z,54.60
2018-08-18T04:27:32.205Z,54.80
2018-08-18T04:30:00.426Z,54.90
2018-08-18T04:32:28.654Z,55.20
2018-08-18T04:34:56.882Z,55.70
2018-08-18T04:37:25.071Z,55.60
2018-08-18T04:39:53.329Z,56.20
2018-08-18T04:42:21.522Z,56.80
2018-08-18T04:44:49.763Z,57.20
2018-08-18T04:47:29.217Z,57.70
2018-08-18T04:49:57.443Z,57.40
2018-08-18T04:52:25.651Z,58.30
2018-08-18T04:54:53.991Z,58.50
2018-08-18T04:57:22.230Z,58.10
2018-08-18T04:59:50.746Z,58.60
2018-08-18T05:02:19.610Z,59.20
2018-08-18T05:04:47.910Z,59.40
2018-08-18T05:07:16.148Z,59.90
2018-08-18T05:09:44.329Z,59.90
2018-08-18T05:12:12.831Z,60.40
2018-08-18T05:14:41.053Z,59.60
2018-08-18T05:17:09.297Z,60.20
2018-08-18T05:19:37.573Z,59.70
2018-08-18T05:22:05.779Z,59.30
2018-08-18T05:24:34.055Z,59.20
2018-08-18T05:27:10.355Z,59.70
2018-08-18T05:29:38.694Z,60.60
2018-08-18T05:32:08.349Z,61.60
2018-08-18T05:34:36.650Z,64.20
2018-08-18T05:37:04.972Z,65.50
2018-08-18T05:39:33.235Z,66.30
2018-08-18T05:42:02.067Z,67.90
2018-08-18T05:44:30.385Z,70.10
2018-08-18T05:46:58.609Z,70.00
2018-08-18T05:49:26.897Z,69.70
2018-08-18T05:51:55.121Z,69.50
2018-08-18T05:54:25.970Z,70.50
2018-08-18T05:56:54.206Z,69.90
2018-08-18T05:59:22.448Z,69.20
2018-08-18T06:01:50.717Z,70.50
2018-08-18T06:04:20.258Z,70.60
2018-08-18T06:06:49.206Z,70.40
2018-08-18T06:09:19.254Z,69.60
2018-08-18T06:11:47.703Z,70.10
2018-08-18T06:14:16.503Z,67.30
2018-08-18T06:16:45.412Z,68.60
2018-08-18T06:19:13.690Z,68.30
2018-08-18T06:21:41.964Z,68.20
2018-08-18T06:24:10.446Z,68.70
2018-08-18T06:26:38.669Z,67.60
2018-08-18T06:29:06.941Z,68.30
2018-08-18T06:31:49.507Z,69.70
2018-08-18T06:34:17.785Z,68.50
2018-08-18T06:36:46.011Z,69.20
2018-08-18T06:39:14.227Z,69.20
2018-08-18T06:41:42.560Z,69.50
2018-08-18T06:44:10.650Z,69.20
2018-08-18T06:46:38.889Z,68.90
2018-08-18T06:49:07.114Z,69.40
2018-08-18T06:51:35.322Z,70.90
2018-08-18T06:54:03.678Z,70.60
2018-08-18T06:56:31.926Z,68.80
2018-08-18T06:59:04.407Z,69.00
2018-08-18T07:01:32.653Z,69.50
2018-08-18T07:04:00.865Z,69.50
2018-08-18T07:06:29.041Z,68.90
2018-08-18T07:08:57.257Z,68.50
2018-08-18T07:11:25.479Z,69.30
2018-08-18T07:13:53.681Z,69.20
2018-08-18T07:16:21.938Z,68.80
2018-08-18T07:18:50.288Z,68.30
2018-08-18T07:21:18.485Z,68.00
2018-08-18T07:23:46.711Z,68.50
2018-08-18T07:26:14.975Z,68.10
2018-08-18T07:28:43.340Z,69.10
2018-08-18T07:31:11.401Z,65.80
2018-08-18T07:33:39.663Z,67.90
2018-08-18T07:36:07.910Z,67.50
2018-08-18T07:38:36.126Z,68.30
2018-08-18T07:41:04.356Z,69.70
2018-08-18T07:43:33.971Z,69.20
2018-08-18T07:46:04.593Z,66.80
2018-08-18T07:48:32.829Z,66.80
2018-08-18T07:51:01.100Z,66.80
2018-08-18T07:53:29.441Z,66.90
2018-08-18T07:55:57.570Z,67.50
2018-08-18T07:58:26.000Z,67.80
2018-08-18T08:00:56.665Z,67.80
2018-08-18T08:03:24.913Z,67.80
2018-08-18T08:05:53.305Z,66.00
2018-08-18T08:08:21.562Z,66.60
2018-08-18T08:10:49.766Z,66.40
2018-08-18T08:13:18.005Z,66.10
2018-08-18T08:15:46.255Z,65.20
2018-08-18T08:18:15.560Z,66.40
2018-08-18T08:20:43.705Z,66.70
2018-08-18T08:23:11.913Z,66.10
2018-08-18T08:25:40.217Z,66.40
2018-08-18T08:28:08.453Z,67.00
2018-08-18T08:30:36.765Z,67.50
2018-08-18T08:33:05.040Z,66.80
2018-08-18T08:35:36.614Z,66.60
2018-08-18T08:38:04.990Z,66.50
2018-08-18T08:40:33.232Z,65.40
2018-08-18T08:43:01.421Z,66.20
2018-08-18T08:45:29.645Z,65.70
2018-08-18T08:47:57.869Z,65.90
2018-08-18T08:50:26.112Z,65.20
2018-08-18T08:52:56.404Z,64.60
2018-08-18T08:55:26.798Z,64.40
2018-08-18T08:57:55.107Z,64.20
2018-08-18T09:00:23.333Z,63.90
2018-08-18T09:02:51.587Z,64.10
2018-08-18T09:05:19.999Z,64.40
2018-08-18T09:07:48.364Z,64.40
2018-08-18T09:10:17.107Z,65.30
2018-08-18T09:12:45.350Z,64.70
2018-08-18T09:15:14.473Z,65.20
2018-08-18T09:17:42.702Z,64.80
2018-08-18T09:20:19.931Z,64.60
2018-08-18T09:22:56.965Z,64.40
2018-08-18T09:25:26.883Z,62.60
2018-08-18T09:27:56.311Z,62.50
2018-08-18T09:30:26.499Z,63.10
2018-08-18T09:32:54.874Z,62.10
2018-08-18T09:35:23.194Z,61.70
2018-08-18T09:37:56.072Z,62.40
2018-08-18T09:40:24.406Z,61.00
2018-08-18T09:42:52.643Z,60.70
2018-08-18T09:45:20.990Z,61.40
2018-08-18T09:47:49.218Z,60.30
2018-08-18T09:50:17.416Z,61.10
2018-08-18T09:52:45.678Z,59.90
2018-08-18T09:55:14.078Z,59.10
2018-08-18T09:57:42.327Z,58.90
2018-08-18T10:00:13.695Z,57.90
2018-08-18T10:02:42.169Z,57.70
2018-08-18T10:05:10.746Z,57.40
2018-08-18T10:07:39.085Z,57.30
2018-08-18T10:10:10.170Z,58.00
2018-08-18T10:12:38.570Z,57.60
2018-08-18T10:15:06.791Z,57.50
2018-08-18T10:17:35.102Z,57.00
2018-08-18T10:20:03.412Z,57.10
2018-08-18T10:22:31.644Z,56.60
2018-08-18T10:24:59.872Z,55.60
2018-08-18T10:27:28.413Z,55.70
2018-08-18T10:29:56.634Z,55.80
2018-08-18T10:32:24.825Z,54.60
2018-08-18T10:34:53.058Z,54.10
2018-08-18T10:37:21.271Z,54.70
2018-08-18T10:39:50.864Z,53.70
2018-08-18T10:42:24.334Z,53.80
2018-08-18T10:44:57.959Z,52.60
2018-08-18T10:47:26.142Z,51.90
2018-08-18T10:50:05.875Z,50.90
2018-08-18T10:52:45.630Z,50.70
2018-08-18T10:55:15.000Z,50.60
2018-08-18T10:57:56.111Z,50.00
2018-08-18T11:00:26.399Z,48.90
2018-08-18T11:02:55.820Z,49.00
2018-08-18T11:05:25.457Z,48.20
2018-08-18T11:07:59.874Z,48.40
2018-08-18T11:10:30.011Z,48.70
2018-08-18T11:12:58.243Z,46.20
2018-08-18T11:15:26.804Z,46.70
2018-08-18T11:17:55.337Z,48.20
2018-08-18T11:20:25.710Z,47.50
2018-08-18T11:22:58.520Z,46.20
2018-08-18T11:25:29.244Z,45.10
2018-08-18T11:27:58.155Z,44.00
2018-08-18T11:30:26.855Z,44.10
2018-08-18T11:32:56.752Z,44.10
2018-08-18T11:35:25.095Z,43.60
2018-08-18T11:37:56.699Z,42.50
2018-08-18T11:40:25.883Z,43.20
2018-08-18T11:42:56.918Z,43.50
2018-08-18T11:45:27.126Z,43.40
2018-08-18T11:47:58.898Z,43.20
2018-08-18T11:50:27.941Z,43.70
2018-08-18T11:52:56.343Z,43.10
2018-08-18T11:55:24.663Z,41.70
2018-08-18T11:57:54.547Z,42.10
2018-08-18T12:00:22.898Z,42.00
2018-08-18T12:02:52.023Z,41.90
2018-08-18T12:05:20.311Z,41.10
2018-08-18T12:07:50.021Z,41.10
2018-08-18T12:10:18.405Z,40.90
2018-08-18T12:12:46.722Z,41.50
2018-08-18T12:15:15.015Z,41.30
2018-08-18T12:18:02.093Z,39.60
2018-08-18T12:20:30.419Z,39.20
2018-08-18T12:22:58.569Z,39.60
2018-08-18T12:25:26.894Z,38.90
2018-08-18T12:27:55.219Z,38.70
2018-08-18T12:30:30.334Z,38.40
2018-08-18T12:33:00.081Z,38.50
2018-08-18T12:35:31.630Z,37.50
2018-08-18T12:38:00.254Z,37.70
2018-08-18T12:40:28.942Z,37.50
2018-08-18T12:42:57.221Z,37.20
2018-08-18T12:45:25.465Z,37.50
2018-08-18T12:48:02.369Z,37.40
2018-08-18T12:50:31.326Z,35.90
2018-08-18T12:52:59.628Z,35.80
2018-08-18T12:55:28.101Z,35.60
2018-08-18T12:57:56.397Z,35.90
2018-08-18T13:00:24.741Z,36.10
2018-08-18T13:02:54.383Z,36.10
2018-08-18T13:05:25.465Z,35.90
2018-08-18T13:07:54.117Z,35.40
2018-08-18T13:10:26.322Z,35.20
2018-08-18T13:12:55.378Z,35.20
2018-08-18T13:15:23.644Z,35.90
2018-08-18T13:17:52.378Z,35.30
2018-08-18T13:20:23.215Z,35.90
2018-08-18T13:22:52.109Z,35.90
2018-08-18T13:25:20.454Z,35.80
2018-08-18T13:27:54.193Z,35.90
2018-08-18T13:30:23.570Z,36.60
2018-08-18T13:32:54.552Z,35.80
2018-08-18T13:35:22.829Z,35.40
2018-08-18T13:37:51.546Z,35.30
2018-08-18T13:40:22.439Z,35.70
2018-08-18T13:42:50.739Z,36.30
2018-08-18T13:45:23.483Z,36.40
2018-08-18T13:47:53.960Z,35.90
2018-08-18T13:50:22.186Z,35.10
2018-08-18T13:52:50.451Z,34.90
2018-08-18T13:55:18.693Z,34.80
2018-08-18T13:57:46.956Z,33.70
2018-08-18T14:00:18.857Z,33.70
2018-08-18T14:02:47.208Z,33.70
2018-08-18T14:05:20.050Z,34.10
2018-08-18T14:07:55.693Z,33.50
2018-08-18T14:10:24.070Z,33.20
2018-08-18T14:12:53.001Z,33.00
2018-08-18T14:15:21.196Z,33.30
2018-08-18T14:17:57.952Z,33.00
2018-08-18T14:20:26.498Z,32.90
2018-08-18T14:22:59.011Z,33.20
2018-08-18T14:25:27.131Z,32.80
2018-08-18T14:28:02.510Z,32.70
2018-08-18T14:30:32.601Z,32.00
2018-08-18T14:33:00.826Z,31.30
2018-08-18T14:35:29.088Z,31.50
2018-08-18T14:37:57.352Z,31.90
2018-08-18T14:40:25.571Z,31.90
2018-08-18T14:42:53.780Z,31.20
2018-08-18T14:45:23.534Z,32.40
2018-08-18T14:47:51.846Z,30.60
2018-08-18T14:50:30.094Z,31.20
2018-08-18T14:52:58.882Z,29.80
2018-08-18T14:55:27.086Z,30.00
2018-08-18T14:58:01.333Z,31.00
2018-08-18T15:00:29.586Z,31.40
2018-08-18T15:02:57.850Z,30.30
2018-08-18T15:05:26.123Z,30.40
2018-08-18T15:07:55.414Z,30.40
2018-08-18T15:10:37.174Z,30.30
2018-08-18T15:13:06.227Z,31.10
2018-08-18T15:15:35.181Z,31.20
2018-08-18T15:18:04.919Z,31.70
2018-08-18T15:20:34.745Z,31.50
2018-08-18T15:23:04.332Z,31.50
2018-08-18T15:25:33.622Z,32.20
2018-08-18T15:28:03.426Z,31.70
2018-08-18T15:30:32.153Z,31.40
2018-08-18T15:33:00.553Z,31.30
2018-08-18T15:35:28.792Z,31.80
2018-08-18T15:37:57.903Z,31.90
2018-08-18T15:40:26.936Z,31.80
2018-08-18T15:42:56.324Z,31.60
2018-08-18T15:45:25.475Z,31.60
2018-08-18T15:47:53.916Z,32.60
2018-08-18T15:50:22.539Z,32.00
2018-08-18T15:52:51.185Z,32.00
2018-08-18T15:55:19.500Z,31.80
2018-08-18T15:57:47.689Z,31.90
2018-08-18T16:00:29.216Z,31.70
2018-08-18T16:02:58.403Z,31.60
2018-08-18T16:05:27.466Z,31.60
2018-08-18T16:07:55.738Z,31.20
2018-08-18T16:10:23.948Z,31.30
2018-08-18T16:12:52.201Z,30.80
2018-08-18T16:15:22.111Z,30.90
2018-08-18T16:17:50.853Z,30.70
2018-08-18T16:20:24.122Z,30.70
2018-08-18T16:22:54.848Z,30.90
2018-08-18T16:25:39.688Z,30.80
2018-08-18T16:28:09.163Z,31.50
2018-08-18T16:30:38.067Z,31.80
2018-08-18T16:33:16.234Z,31.70
2018-08-18T16:35:45.260Z,31.60
2018-08-18T16:38:13.459Z,31.90
2018-08-18T16:40:41.937Z,32.00
2018-08-18T16:43:11.483Z,31.40
2018-08-18T16:45:39.829Z,31.60
2018-08-18T16:48:09.414Z,31.80
2018-08-18T16:50:40.968Z,32.40
2018-08-18T16:53:10.452Z,31.60
2018-08-18T16:55:40.360Z,31.80
2018-08-18T16:58:08.612Z,32.70
2018-08-18T17:00:54.454Z,32.00
2018-08-18T17:03:30.309Z,31.80
2018-08-18T17:05:59.558Z,31.70
2018-08-18T17:08:28.147Z,32.00
2018-08-18T17:10:56.379Z,31.80
2018-08-18T17:13:27.841Z,31.70
2018-08-18T17:15:56.238Z,31.60
2018-08-18T17:18:24.700Z,31.50
2018-08-18T17:20:57.693Z,31.70
2018-08-18T17:23:27.308Z,31.80
2018-08-18T17:25:55.503Z,32.00
2018-08-18T17:28:23.718Z,32.30
2018-08-18T17:30:52.765Z,32.60
2018-08-18T17:33:22.706Z,32.60
2018-08-18T17:35:51.270Z,32.40
2018-08-18T17:38:20.102Z,32.50
2018-08-18T17:40:48.325Z,32.80
2018-08-18T17:43:17.146Z,32.70
2018-08-18T17:46:02.179Z,32.70
2018-08-18T17:48:35.385Z,32.70
2018-08-18T17:51:04.204Z,32.90
2018-08-18T17:53:33.382Z,32.90
2018-08-18T17:56:04.550Z,33.30
2018-08-18T17:58:32.771Z,33.30
2018-08-18T18:01:01.955Z,34.00
2018-08-18T18:03:30.305Z,33.80
2018-08-18T18:05:58.527Z,33.80
2018-08-18T18:08:26.751Z,33.90
2018-08-18T18:10:54.991Z,33.90
2018-08-18T18:13:26.375Z,33.90
2018-08-18T18:15:54.655Z,34.60
2018-08-18T18:18:25.699Z,33.80
2018-08-18T18:20:55.073Z,34.20
2018-08-18T18:23:24.400Z,34.30
2018-08-18T18:25:52.696Z,34.40
2018-08-18T18:28:21.014Z,34.70
2018-08-18T18:30:52.775Z,34.90
2018-08-18T18:33:21.083Z,35.00
2018-08-18T18:35:49.942Z,35.40
2018-08-18T18:38:18.217Z,35.60
2018-08-18T18:40:46.683Z,35.80
2018-08-18T18:43:15.149Z,35.90
2018-08-18T18:45:43.479Z,36.00
2018-08-18T18:48:14.178Z,36.30
2018-08-18T18:50:47.493Z,36.20
2018-08-18T18:53:15.953Z,36.60
2018-08-18T18:55:51.818Z,36.70
2018-08-18T18:58:20.082Z,36.90
2018-08-18T19:01:05.510Z,37.20
2018-08-18T19:03:33.783Z,37.40
2018-08-18T19:06:02.035Z,37.50
2018-08-18T19:08:30.311Z,37.70
2018-08-18T19:10:58.530Z,38.00
2018-08-18T19:13:26.952Z,38.00
2018-08-18T19:15:55.395Z,38.30
2018-08-18T19:18:23.651Z,38.20
2018-08-18T19:20:51.897Z,38.30
2018-08-18T19:23:20.910Z,38.30
2018-08-18T19:25:50.273Z,38.60
2018-08-18T19:28:21.768Z,38.70
2018-08-18T19:30:50.017Z,39.00
2018-08-18T19:33:18.670Z,39.50
2018-08-18T19:35:48.145Z,40.00
2018-08-18T19:38:16.965Z,40.70
2018-08-18T19:40:46.363Z,41.70
2018-08-18T19:43:23.162Z,41.30
2018-08-18T19:45:51.862Z,41.80
2018-08-18T19:48:24.765Z,41.80
2018-08-18T19:50:58.442Z,42.20
2018-08-18T19:53:29.633Z,42.60
2018-08-18T19:55:58.913Z,43.20
2018-08-18T19:58:27.854Z,43.40
2018-08-18T20:00:56.126Z,44.00
2018-08-18T20:03:24.955Z,44.40
2018-08-18T20:05:53.191Z,44.90
2018-08-18T20:08:22.752Z,45.50
2018-08-18T20:10:58.959Z,45.60
2018-08-18T20:13:28.967Z,46.10
2018-08-18T20:15:58.729Z,46.40
2018-08-18T20:18:27.094Z,46.50
2018-08-18T20:20:57.732Z,46.80
2018-08-18T20:23:29.055Z,47.30
2018-08-18T20:25:57.303Z,47.70
2018-08-18T20:28:25.527Z,47.90
2018-08-18T20:30:53.759Z,48.00
2018-08-18T20:33:22.033Z,48.20
2018-08-18T20:35:50.581Z,48.50
2018-08-18T20:38:18.840Z,48.70
2018-08-18T20:40:47.458Z,48.70
2018-08-18T20:43:15.791Z,48.90
2018-08-18T20:45:47.651Z,49.20
2018-08-18T20:48:18.436Z,49.00
2018-08-18T20:50:47.017Z,49.40
2018-08-18T20:53:16.182Z,49.30
2018-08-18T20:55:52.265Z,49.30
2018-08-18T20:58:20.490Z,49.80
2018-08-18T21:00:48.757Z,49.30
2018-08-18T21:03:17.046Z,48.90
2018-08-18T21:05:45.272Z,49.20
2018-08-18T21:08:18.958Z,50.60
2018-08-18T21:10:47.625Z,50.00
2018-08-18T21:13:15.914Z,51.00
2018-08-18T21:15:44.181Z,50.50
2018-08-18T21:18:17.440Z,50.80
2018-08-18T21:20:45.828Z,51.70
2018-08-18T21:23:14.009Z,51.80
2018-08-18T21:25:46.035Z,52.30
2018-08-18T21:28:15.300Z,52.40
2018-08-18T21:30:43.561Z,53.00
2018-08-18T21:33:11.932Z,53.10
2018-08-18T21:35:40.717Z,53.10
2018-08-18T21:38:09.145Z,53.20
2018-08-18T21:40:37.397Z,53.40
2018-08-18T21:43:06.214Z,53.30
2018-08-18T21:45:39.862Z,53.70
2018-08-18T21:48:08.106Z,53.80
2018-08-18T21:50:36.325Z,54.10
2018-08-18T21:53:04.563Z,54.30
2018-08-18T21:55:32.816Z,54.80
2018-08-18T21:58:01.066Z,54.90
2018-08-18T22:00:35.436Z,54.80
2018-08-18T22:03:03.681Z,55.10
2018-08-18T22:05:33.119Z,55.20
2018-08-18T22:08:01.408Z,55.00
2018-08-18T22:10:29.667Z,55.30
2018-08-18T22:12:57.862Z,55.30
2018-08-18T22:15:26.159Z,55.50
2018-08-18T22:17:54.776Z,55.40
2018-08-18T22:20:23.700Z,55.60
2018-08-18T22:22:52.005Z,56.00
2018-08-18T22:25:20.546Z,55.90
2018-08-18T22:27:52.143Z,56.10
2018-08-18T22:30:21.438Z,56.70
2018-08-18T22:32:49.682Z,56.20
2018-08-18T22:35:17.919Z,56.30
2018-08-18T22:37:46.141Z,56.40
2018-08-18T22:40:14.395Z,56.40
2018-08-18T22:42:42.631Z,56.30
2018-08-18T22:45:19.507Z,56.20
2018-08-18T22:47:47.774Z,55.20
2018-08-18T22:50:16.086Z,53.40
2018-08-18T22:52:47.047Z,52.20
2018-08-18T22:55:15.508Z,51.80
2018-08-18T22:57:47.994Z,51.10
2018-08-18T23:00:16.240Z,50.70
2018-08-18T23:02:44.770Z,50.60
2018-08-18T23:05:13.066Z,50.50
2018-08-18T23:07:41.384Z,50.20
2018-08-18T23:10:10.350Z,50.00
2018-08-18T23:12:38.587Z,49.80
2018-08-18T23:15:06.897Z,49.80
2018-08-18T23:17:35.310Z,49.50
2018-08-18T23:20:03.536Z,49.80
2018-08-18T23:22:48.653Z,49.80
2018-08-18T23:27:50.589Z,49.80
2018-08-18T23:30:23.197Z,49.50
2018-08-18T23:32:51.418Z,49.10
2018-08-18T23:35:20.832Z,49.10
2018-08-18T23:37:49.108Z,49.90
2018-08-18T23:40:17.425Z,49.10
2018-08-18T23:42:45.678Z,49.30
2018-08-18T23:45:13.943Z,49.30
2018-08-18T23:47:42.269Z,49.40
2018-08-18T23:50:10.542Z,49.40
2018-08-18T23:52:53.271Z,49.50
2018-08-18T23:55:21.886Z,49.50
2018-08-18T23:57:51.710Z,49.50
